createdAt,value
2023-09-29T00:04:38.510Z,17.52
2023-09-29T00:09:41.225Z,17.13
2023-09-29T00:14:43.909Z,18.00
2023-09-29T00:19:46.656Z,20.76
2023-09-29T00:24:49.395Z,21.11
2023-09-29T00:29:52.169Z,19.32
2023-09-29T00:34:55.054Z,18.17
2023-09-29T00:39:57.769Z,17.48
2023-09-29T00:45:02.117Z,17.01
2023-09-29T00:50:10.359Z,17.90
2023-09-29T00:55:16.753Z,20.70
2023-09-29T01:00:31.360Z,20.72
2023-09-29T01:05:39.578Z,18.99
2023-09-29T01:10:43.262Z,18.00
2023-09-29T01:15:46.822Z,17.37
2023-09-29T01:20:50.151Z,16.91
2023-09-29T01:25:52.887Z,17.80
2023-09-29T01:30:55.760Z,20.54
2023-09-29T01:35:58.793Z,20.81
2023-09-29T01:41:01.622Z,19.05
2023-09-29T01:46:04.544Z,17.97
2023-09-29T01:51:07.862Z,17.29
2023-09-29T01:56:10.568Z,16.77
2023-09-29T02:01:14.560Z,17.62
2023-09-29T02:06:17.530Z,20.34
2023-09-29T02:11:20.220Z,20.62
2023-09-29T02:16:22.937Z,18.84
2023-09-29T02:21:29.332Z,17.77
2023-09-29T02:26:32.018Z,17.08
2023-09-29T02:31:37.531Z,16.56
2023-09-29T02:36:41.369Z,17.40
2023-09-29T02:41:45.416Z,20.12
2023-09-29T02:46:48.245Z,20.36
2023-09-29T02:51:50.980Z,18.57
2023-09-29T02:56:53.773Z,17.52
2023-09-29T03:01:56.554Z,16.82
2023-09-29T03:07:00.609Z,17.48
2023-09-29T03:12:04.908Z,20.16
2023-09-29T03:17:07.716Z,20.38
2023-09-29T03:22:14.405Z,18.55
2023-09-29T03:27:18.877Z,17.44
2023-09-29T03:32:21.573Z,16.68
2023-09-29T03:37:25.010Z,17.29
2023-09-29T03:42:30.718Z,20.00
2023-09-29T03:47:36.451Z,20.24
2023-09-29T03:52:40.587Z,18.41
2023-09-29T03:57:43.522Z,17.34
2023-09-29T04:02:51.368Z,16.62
2023-09-29T04:07:54.776Z,17.23
2023-09-29T04:12:57.484Z,19.85
2023-09-29T04:18:00.258Z,19.85
2023-09-29T04:23:03.139Z,18.04
2023-09-29T04:28:06.021Z,17.02
2023-09-29T04:33:08.770Z,16.35
2023-09-29T04:38:11.994Z,17.05
2023-09-29T04:43:14.809Z,19.67
2023-09-29T04:48:17.936Z,19.94
2023-09-29T04:53:20.747Z,18.09
2023-09-29T04:58:23.509Z,17.01
2023-09-29T05:03:26.401Z,17.54
2023-09-29T05:08:29.296Z,20.09
2023-09-29T05:13:33.736Z,19.67
2023-09-29T05:18:36.856Z,18.00
2023-09-29T05:23:40.593Z,17.07
2023-09-29T05:28:43.582Z,17.60
2023-09-29T05:33:46.546Z,20.14
2023-09-29T05:38:49.627Z,19.84
2023-09-29T05:43:52.597Z,18.12
2023-09-29T05:48:56.129Z,17.18
2023-09-29T05:54:00.004Z,16.60
2023-09-29T05:59:03.094Z,17.52
2023-09-29T06:04:06.803Z,20.29
2023-09-29T06:09:09.812Z,20.62
2023-09-29T06:14:12.556Z,18.90
2023-09-29T06:19:16.367Z,17.93
2023-09-29T06:24:19.187Z,17.40
2023-09-29T06:29:22.009Z,18.31
2023-09-29T06:34:25.187Z,21.10
2023-09-29T06:39:28.674Z,21.33
2023-09-29T06:44:33.495Z,19.82
2023-09-29T06:49:37.886Z,19.05
2023-09-29T06:54:43.195Z,18.70
2023-09-29T06:59:46.347Z,19.76
2023-09-29T07:04:49.304Z,22.45
2023-09-29T07:09:52.236Z,21.82
2023-09-29T07:14:55.010Z,20.88
2023-09-29T07:19:57.779Z,20.51
2023-09-29T07:25:00.700Z,20.36
2023-09-29T07:30:04.142Z,20.29
2023-09-29T07:35:08.752Z,20.31
2023-09-29T07:40:13.158Z,20.38
2023-09-29T07:45:16.762Z,21.70
2023-09-29T07:50:20.743Z,23.81
2023-09-29T07:55:23.683Z,22.98
2023-09-29T08:00:27.324Z,22.53
2023-09-29T08:05:30.507Z,22.39
2023-09-29T08:10:33.519Z,22.35
2023-09-29T08:15:36.386Z,22.37
2023-09-29T08:20:39.197Z,22.48
2023-09-29T08:25:44.679Z,22.65
2023-09-29T08:30:47.709Z,22.92
2023-09-29T08:35:50.719Z,23.18
2023-09-29T08:40:56.602Z,23.44
2023-09-29T08:46:00.272Z,23.73
2023-09-29T08:51:04.691Z,23.96
2023-09-29T08:56:12.865Z,24.18
2023-09-29T09:01:18.529Z,24.34
2023-09-29T09:06:24.011Z,24.47
2023-09-29T09:11:29.214Z,24.73
2023-09-29T09:16:37.962Z,25.02
2023-09-29T09:21:43.817Z,25.29
2023-09-29T09:26:48.434Z,25.49
2023-09-29T09:31:54.291Z,25.62
2023-09-29T09:36:58.146Z,25.86
2023-09-29T09:42:04.661Z,26.11
2023-09-29T09:47:13.363Z,26.34
2023-09-29T09:52:27.365Z,26.64
2023-09-29T09:57:34.938Z,26.90
2023-09-29T10:02:45.910Z,27.07
2023-09-29T10:08:06.911Z,27.23
2023-09-29T10:13:12.957Z,27.36
2023-09-29T10:18:20.863Z,27.48
2023-09-29T10:23:26.500Z,27.66
2023-09-29T10:28:32.846Z,27.90
2023-09-29T10:33:56.600Z,28.05
2023-09-29T10:39:01.433Z,28.04
2023-09-29T10:44:06.138Z,28.24
2023-09-29T10:49:11.577Z,28.64
2023-09-29T10:54:14.704Z,29.10
2023-09-29T10:59:18.334Z,29.72
2023-09-29T11:04:24.254Z,30.45
2023-09-29T11:09:33.749Z,31.09
2023-09-29T11:14:39.017Z,31.44
2023-09-29T11:19:55.871Z,31.82
2023-09-29T11:25:02.130Z,32.12
2023-09-29T11:30:07.505Z,32.62
2023-09-29T11:35:15.107Z,33.23
2023-09-29T11:40:18.282Z,33.85
2023-09-29T11:45:21.572Z,34.58
2023-09-29T11:50:24.390Z,35.18
2023-09-29T11:55:28.785Z,35.89
2023-09-29T12:00:31.833Z,36.66
2023-09-29T12:05:39.648Z,37.10
2023-09-29T12:10:44.593Z,37.23
2023-09-29T12:15:48.168Z,37.04
2023-09-29T12:20:54.054Z,36.99
2023-09-29T12:25:57.012Z,37.34
2023-09-29T12:31:00.187Z,37.56
2023-09-29T12:36:03.179Z,37.87
2023-09-29T12:41:07.077Z,37.80
2023-09-29T12:46:10.120Z,36.99
2023-09-29T12:51:28.111Z,35.47
2023-09-29T12:56:31.954Z,34.14
2023-09-29T13:01:35.559Z,33.13
2023-09-29T13:06:38.751Z,32.06
2023-09-29T13:11:41.873Z,31.28
2023-09-29T13:16:44.758Z,30.65
2023-09-29T13:21:47.699Z,30.11
2023-09-29T13:26:52.617Z,29.58
2023-09-29T13:31:55.411Z,29.20
2023-09-29T13:37:00.799Z,28.88
2023-09-29T13:42:12.723Z,28.66
2023-09-29T13:47:15.557Z,28.51
2023-09-29T13:52:21.295Z,28.33
2023-09-29T13:57:24.870Z,28.17
2023-09-29T14:02:27.741Z,28.05
2023-09-29T14:07:30.560Z,27.94
2023-09-29T14:12:37.543Z,27.85
2023-09-29T14:17:40.358Z,27.76
2023-09-29T14:22:43.326Z,27.63
2023-09-29T14:27:46.107Z,27.50
2023-09-29T14:32:49.212Z,27.37
2023-09-29T14:37:55.540Z,27.23
2023-09-29T14:42:58.352Z,27.10
2023-09-29T14:48:06.401Z,26.99
2023-09-29T14:53:09.346Z,26.91
2023-09-29T14:58:12.813Z,26.79
2023-09-29T15:03:16.171Z,26.67
2023-09-29T15:08:20.269Z,26.58
2023-09-29T15:13:23.287Z,26.44
2023-09-29T15:18:32.333Z,26.25
2023-09-29T15:23:38.967Z,26.07
2023-09-29T15:28:41.754Z,25.91
2023-09-29T15:33:44.547Z,25.78
2023-09-29T15:38:47.580Z,25.65
2023-09-29T15:43:50.950Z,25.53
2023-09-29T15:48:53.682Z,25.40
2023-09-29T15:53:57.044Z,25.26
2023-09-29T15:59:00.322Z,25.10
2023-09-29T16:04:03.339Z,24.92
2023-09-29T16:09:07.583Z,24.74
2023-09-29T16:14:11.571Z,24.59
2023-09-29T16:19:14.310Z,24.44
2023-09-29T16:24:17.097Z,24.30
2023-09-29T16:29:19.886Z,24.17
2023-09-29T16:34:22.786Z,24.05
2023-09-29T16:39:25.642Z,23.94
2023-09-29T16:44:28.414Z,23.84
2023-09-29T16:49:31.177Z,23.76
2023-09-29T16:54:34.496Z,23.68
2023-09-29T16:59:38.855Z,23.63
2023-09-29T17:04:41.689Z,23.56
2023-09-29T17:09:44.599Z,23.49
2023-09-29T17:14:47.319Z,23.41
2023-09-29T17:19:51.475Z,23.33
2023-09-29T17:24:54.176Z,23.23
2023-09-29T17:29:56.977Z,23.17
2023-09-29T17:35:01.652Z,23.12
2023-09-29T17:40:05.647Z,23.06
2023-09-29T17:45:09.587Z,23.00
2023-09-29T17:50:12.604Z,22.95
2023-09-29T17:55:15.477Z,22.90
2023-09-29T18:00:18.452Z,22.88
2023-09-29T18:05:21.622Z,22.84
2023-09-29T18:10:25.913Z,22.79
2023-09-29T18:15:29.273Z,22.76
2023-09-29T18:20:32.647Z,22.73
2023-09-29T18:25:35.489Z,22.69
2023-09-29T18:30:38.622Z,22.66
2023-09-29T18:35:41.684Z,22.64
2023-09-29T18:40:44.977Z,22.58
2023-09-29T18:45:48.087Z,22.46
2023-09-29T18:50:51.134Z,22.33
2023-09-29T18:55:57.540Z,22.18
2023-09-29T19:01:00.586Z,22.06
2023-09-29T19:06:04.981Z,21.95
2023-09-29T19:11:17.457Z,21.83
2023-09-29T19:16:20.618Z,21.72
2023-09-29T19:21:24.297Z,21.59
2023-09-29T19:26:29.781Z,21.47
2023-09-29T19:31:34.793Z,21.38
2023-09-29T19:36:37.880Z,21.30
2023-09-29T19:41:41.187Z,21.22
2023-09-29T19:46:44.609Z,21.14
2023-09-29T19:51:49.136Z,21.07
2023-09-29T19:56:52.233Z,20.95
2023-09-29T20:01:55.353Z,20.88
2023-09-29T20:06:59.885Z,20.83
2023-09-29T20:12:03.902Z,20.78
2023-09-29T20:17:07.002Z,20.70
2023-09-29T20:22:10.253Z,20.62
2023-09-29T20:27:13.146Z,20.58
2023-09-29T20:32:16.324Z,20.53
2023-09-29T20:37:19.089Z,20.48
2023-09-29T20:42:21.864Z,20.42
2023-09-29T20:47:24.618Z,20.38
2023-09-29T20:52:28.576Z,20.33
2023-09-29T20:57:31.354Z,20.30
2023-09-29T21:02:34.495Z,20.26
2023-09-29T21:07:40.802Z,20.24
2023-09-29T21:12:43.567Z,20.23
2023-09-29T21:17:46.477Z,20.21
2023-09-29T21:22:53.928Z,20.19
2023-09-29T21:27:56.902Z,20.15
2023-09-29T21:32:59.848Z,20.12
2023-09-29T21:38:02.765Z,20.11
2023-09-29T21:43:05.515Z,20.11
2023-09-29T21:48:08.699Z,20.11
2023-09-29T21:55:19.205Z,20.08
2023-09-29T22:00:23.123Z,20.05
2023-09-29T22:05:25.988Z,20.01
2023-09-29T22:10:29.125Z,19.97
2023-09-29T22:15:33.414Z,19.90
2023-09-29T22:20:39.021Z,19.87
2023-09-29T22:25:42.188Z,19.82
2023-09-29T22:30:46.258Z,19.78
2023-09-29T22:35:49.323Z,19.76
2023-09-29T22:40:52.047Z,20.81
2023-09-29T22:45:55.350Z,23.60
2023-09-29T22:50:59.805Z,24.08
2023-09-29T22:56:09.292Z,22.65
2023-09-29T23:01:14.181Z,21.82
2023-09-29T23:06:17.933Z,21.37
2023-09-29T23:11:20.944Z,21.06
2023-09-29T23:16:24.073Z,20.80
2023-09-29T23:21:26.982Z,20.58
2023-09-29T23:26:29.779Z,20.36
2023-09-29T23:31:35.413Z,21.30
2023-09-29T23:36:38.838Z,23.95
2023-09-29T23:41:43.783Z,24.29
2023-09-29T23:46:46.530Z,22.76
2023-09-29T23:51:49.391Z,21.82
2023-09-29T23:56:52.854Z,21.19
